sensor_id;sensor_type;location;lat;lon;timestamp;P1;durP1;ratioP1;P2;durP2;ratioP2
3225;SDS011;1625;49.884;8.666;2023-03-05T06:29:24;10.37;;;6.00;;
3225;SDS011;1625;49.884;8.666;2023-03-05T06:31:50;7.27;;;5.40;;
3225;SDS011;1625;49.884;8.666;2023-03-05T06:34:23;8.63;;;5.70;;
3225;SDS011;1625;49.884;8.666;2023-03-05T06:36:49;7.27;;;5.93;;
3225;SDS011;1625;49.884;8.666;2023-03-05T06:39:14;7.63;;;6.80;;
3225;SDS011;1625;49.884;8.666;2023-03-05T06:41:40;7.73;;;6.93;;
3225;SDS011;1625;49.884;8.666;2023-03-05T06:44:05;8.40;;;6.60;;
3225;SDS011;1625;49.884;8.666;2023-03-05T06:46:32;6.90;;;6.20;;
3225;SDS011;1625;49.884;8.666;2023-03-05T06:49:02;9.03;;;6.50;;
3225;SDS011;1625;49.884;8.666;2023-03-05T06:58:30;9.90;;;6.77;;
3225;SDS011;1625;49.884;8.666;2023-03-05T07:00:56;10.23;;;8.23;;
3225;SDS011;1625;49.884;8.666;2023-03-05T07:03:21;11.27;;;8.07;;
3225;SDS011;1625;49.884;8.666;2023-03-05T07:05:48;13.13;;;9.20;;
3225;SDS011;1625;49.884;8.666;2023-03-05T07:08:22;11.53;;;9.33;;
3225;SDS011;1625;49.884;8.666;2023-03-05T07:10:53;13.00;;;10.10;;
3225;SDS011;1625;49.884;8.666;2023-03-05T07:16:47;14.50;;;9.93;;
3225;SDS011;1625;49.884;8.666;2023-03-05T07:19:15;16.53;;;10.43;;
3225;SDS011;1625;49.884;8.666;2023-03-05T07:21:41;14.00;;;9.60;;
3225;SDS011;1625;49.884;8.666;2023-03-05T07:55:21;8.33;;;6.47;;
3225;SDS011;1625;49.884;8.666;2023-03-05T07:57:47;11.40;;;7.23;;
3225;SDS011;1625;49.884;8.666;2023-03-05T08:02:41;10.97;;;8.40;;
3225;SDS011;1625;49.884;8.666;2023-03-05T08:05:07;11.20;;;8.27;;
3225;SDS011;1625;49.884;8.666;2023-03-05T08:07:33;13.07;;;8.17;;
3225;SDS011;1625;49.884;8.666;2023-03-05T08:09:58;15.27;;;8.53;;
3225;SDS011;1625;49.884;8.666;2023-03-05T08:12:24;11.73;;;7.97;;
3225;SDS011;1625;49.884;8.666;2023-03-05T08:14:49;9.20;;;7.47;;
3225;SDS011;1625;49.884;8.666;2023-03-05T08:17:15;9.10;;;7.10;;
3225;SDS011;1625;49.884;8.666;2023-03-05T08:19:41;10.10;;;7.63;;
3225;SDS011;1625;49.884;8.666;2023-03-05T08:22:06;12.90;;;9.13;;
3225;SDS011;1625;49.884;8.666;2023-03-05T08:24:32;13.90;;;8.50;;
3225;SDS011;1625;49.884;8.666;2023-03-05T08:26:58;8.77;;;7.60;;
3225;SDS011;1625;49.884;8.666;2023-03-05T08:32:02;11.83;;;7.77;;
3225;SDS011;1625;49.884;8.666;2023-03-05T08:34:35;9.43;;;7.57;;
3225;SDS011;1625;49.884;8.666;2023-03-05T08:37:03;9.60;;;7.03;;
3225;SDS011;1625;49.884;8.666;2023-03-05T08:39:34;9.43;;;7.60;;
3225;SDS011;1625;49.884;8.666;2023-03-05T08:42:30;10.97;;;8.03;;
3225;SDS011;1625;49.884;8.666;2023-03-05T08:45:03;11.70;;;7.70;;
3225;SDS011;1625;49.884;8.666;2023-03-05T08:47:37;13.30;;;7.20;;
3225;SDS011;1625;49.884;8.666;2023-03-05T08:50:23;8.93;;;6.03;;
3225;SDS011;1625;49.884;8.666;2023-03-05T08:53:03;9.50;;;7.30;;
3225;SDS011;1625;49.884;8.666;2023-03-05T08:55:29;12.53;;;6.77;;
3225;SDS011;1625;49.884;8.666;2023-03-05T08:57:55;12.53;;;7.20;;
3225;SDS011;1625;49.884;8.666;2023-03-05T09:00:21;8.63;;;6.97;;
3225;SDS011;1625;49.884;8.666;2023-03-05T09:02:47;10.57;;;7.13;;
3225;SDS011;1625;49.884;8.666;2023-03-05T09:05:13;7.97;;;5.93;;
3225;SDS011;1625;49.884;8.666;2023-03-05T09:07:44;9.13;;;6.50;;
3225;SDS011;1625;49.884;8.666;2023-03-05T09:10:15;7.27;;;5.57;;
3225;SDS011;1625;49.884;8.666;2023-03-05T09:12:46;6.57;;;5.60;;
3225;SDS011;1625;49.884;8.666;2023-03-05T09:15:18;6.63;;;4.90;;
3225;SDS011;1625;49.884;8.666;2023-03-05T09:17:46;6.90;;;5.47;;
3225;SDS011;1625;49.884;8.666;2023-03-05T09:20:12;8.60;;;5.43;;
3225;SDS011;1625;49.884;8.666;2023-03-05T09:22:38;7.93;;;5.30;;
3225;SDS011;1625;49.884;8.666;2023-03-05T09:25:04;6.80;;;5.30;;
3225;SDS011;1625;49.884;8.666;2023-03-05T09:27:34;7.80;;;5.17;;
3225;SDS011;1625;49.884;8.666;2023-03-05T09:30:00;6.27;;;5.17;;
3225;SDS011;1625;49.884;8.666;2023-03-05T09:32:26;8.67;;;5.83;;
3225;SDS011;1625;49.884;8.666;2023-03-05T09:34:52;6.57;;;4.93;;
3225;SDS011;1625;49.884;8.666;2023-03-05T09:37:17;10.60;;;5.20;;
3225;SDS011;1625;49.884;8.666;2023-03-05T09:39:43;9.43;;;5.77;;
3225;SDS011;1625;49.884;8.666;2023-03-05T09:45:07;11.20;;;6.57;;
3225;SDS011;1625;49.884;8.666;2023-03-05T09:55:51;8.87;;;5.67;;
3225;SDS011;1625;49.884;8.666;2023-03-05T10:00:55;6.83;;;6.00;;
3225;SDS011;1625;49.884;8.666;2023-03-05T10:03:35;7.20;;;5.43;;
3225;SDS011;1625;49.884;8.666;2023-03-05T10:06:26;8.60;;;6.00;;
3225;SDS011;1625;49.884;8.666;2023-03-05T10:09:03;10.70;;;6.43;;
3225;SDS011;1625;49.884;8.666;2023-03-05T10:11:52;7.57;;;5.70;;
3225;SDS011;1625;49.884;8.666;2023-03-05T10:14:28;6.03;;;5.47;;
3225;SDS011;1625;49.884;8.666;2023-03-05T10:22:24;9.87;;;5.97;;
3225;SDS011;1625;49.884;8.666;2023-03-05T10:25:01;6.83;;;5.37;;
3225;SDS011;1625;49.884;8.666;2023-03-05T10:27:45;8.20;;;5.83;;
3225;SDS011;1625;49.884;8.666;2023-03-05T10:30:39;6.27;;;4.57;;
3225;SDS011;1625;49.884;8.666;2023-03-05T11:46:36;4.93;;;3.53;;
3225;SDS011;1625;49.884;8.666;2023-03-05T11:49:05;4.47;;;3.93;;
3225;SDS011;1625;49.884;8.666;2023-03-05T11:51:43;8.10;;;5.00;;
3225;SDS011;1625;49.884;8.666;2023-03-05T11:54:15;4.67;;;4.27;;
3225;SDS011;1625;49.884;8.666;2023-03-05T11:56:46;7.20;;;3.73;;
3225;SDS011;1625;49.884;8.666;2023-03-05T12:28:08;7.23;;;4.30;;
3225;SDS011;1625;49.884;8.666;2023-03-05T12:30:52;6.03;;;4.17;;
3225;SDS011;1625;49.884;8.666;2023-03-05T12:33:30;6.47;;;3.77;;
3225;SDS011;1625;49.884;8.666;2023-03-05T12:36:30;6.20;;;3.73;;
3225;SDS011;1625;49.884;8.666;2023-03-05T12:38:57;6.47;;;3.93;;
3225;SDS011;1625;49.884;8.666;2023-03-05T12:46:42;6.23;;;4.17;;
3225;SDS011;1625;49.884;8.666;2023-03-05T12:51:54;5.50;;;4.63;;
3225;SDS011;1625;49.884;8.666;2023-03-05T12:56:48;6.67;;;4.33;;
3225;SDS011;1625;49.884;8.666;2023-03-05T12:59:16;4.70;;;4.00;;
3225;SDS011;1625;49.884;8.666;2023-03-05T13:01:56;5.60;;;4.33;;
3225;SDS011;1625;49.884;8.666;2023-03-05T13:04:25;4.63;;;3.80;;
3225;SDS011;1625;49.884;8.666;2023-03-05T13:07:04;4.80;;;2.87;;
3225;SDS011;1625;49.884;8.666;2023-03-05T13:09:36;4.10;;;3.60;;
3225;SDS011;1625;49.884;8.666;2023-03-05T13:12:03;5.83;;;3.70;;
3225;SDS011;1625;49.884;8.666;2023-03-05T13:14:39;5.70;;;3.43;;
3225;SDS011;1625;49.884;8.666;2023-03-05T13:20:03;4.70;;;3.53;;
3225;SDS011;1625;49.884;8.666;2023-03-05T13:25:28;5.50;;;3.20;;
3225;SDS011;1625;49.884;8.666;2023-03-05T13:28:01;5.30;;;3.30;;
3225;SDS011;1625;49.884;8.666;2023-03-05T13:30:34;5.20;;;3.60;;
3225;SDS011;1625;49.884;8.666;2023-03-05T13:33:00;3.03;;;2.73;;
3225;SDS011;1625;49.884;8.666;2023-03-05T13:35:28;5.70;;;3.27;;
3225;SDS011;1625;49.884;8.666;2023-03-05T13:38:13;5.47;;;3.23;;
3225;SDS011;1625;49.884;8.666;2023-03-05T13:40:55;3.40;;;2.87;;
3225;SDS011;1625;49.884;8.666;2023-03-05T13:43:28;4.43;;;3.00;;
3225;SDS011;1625;49.884;8.666;2023-03-05T13:45:53;4.00;;;3.03;;
3225;SDS011;1625;49.884;8.666;2023-03-05T13:48:22;4.90;;;3.00;;
3225;SDS011;1625;49.884;8.666;2023-03-05T13:50:54;4.10;;;3.13;;
3225;SDS011;1625;49.884;8.666;2023-03-05T13:55:49;3.20;;;2.90;;
3225;SDS011;1625;49.884;8.666;2023-03-05T14:03:57;6.17;;;3.30;;
3225;SDS011;1625;49.884;8.666;2023-03-05T14:06:31;4.37;;;3.73;;
3225;SDS011;1625;49.884;8.666;2023-03-05T14:09:06;3.20;;;2.60;;
3225;SDS011;1625;49.884;8.666;2023-03-05T14:12:00;4.53;;;2.83;;
3225;SDS011;1625;49.884;8.666;2023-03-05T14:14:27;4.73;;;3.10;;
3225;SDS011;1625;49.884;8.666;2023-03-05T14:17:18;5.20;;;3.60;;
3225;SDS011;1625;49.884;8.666;2023-03-05T14:22:39;4.83;;;4.13;;
3225;SDS011;1625;49.884;8.666;2023-03-05T14:25:23;4.00;;;3.30;;
3225;SDS011;1625;49.884;8.666;2023-03-05T14:27:52;3.60;;;3.30;;
3225;SDS011;1625;49.884;8.666;2023-03-05T14:30:19;4.43;;;3.10;;
3225;SDS011;1625;49.884;8.666;2023-03-05T14:32:46;3.70;;;3.17;;
3225;SDS011;1625;49.884;8.666;2023-03-05T14:35:17;3.80;;;3.30;;
3225;SDS011;1625;49.884;8.666;2023-03-05T14:37:49;5.20;;;3.40;;
3225;SDS011;1625;49.884;8.666;2023-03-05T14:42:59;4.93;;;3.20;;
3225;SDS011;1625;49.884;8.666;2023-03-05T14:45:38;4.43;;;3.13;;
3225;SDS011;1625;49.884;8.666;2023-03-05T14:48:07;3.60;;;3.20;;
3225;SDS011;1625;49.884;8.666;2023-03-05T14:50:35;3.47;;;2.50;;
3225;SDS011;1625;49.884;8.666;2023-03-05T14:56:34;3.87;;;2.47;;
3225;SDS011;1625;49.884;8.666;2023-03-05T14:58:59;4.83;;;3.40;;
3225;SDS011;1625;49.884;8.666;2023-03-05T15:01:25;3.30;;;3.00;;
3225;SDS011;1625;49.884;8.666;2023-03-05T15:03:51;4.10;;;3.37;;
3225;SDS011;1625;49.884;8.666;2023-03-05T15:08:59;6.00;;;3.13;;
3225;SDS011;1625;49.884;8.666;2023-03-05T15:11:25;5.00;;;3.60;;
3225;SDS011;1625;49.884;8.666;2023-03-05T15:14:00;6.33;;;4.63;;
3225;SDS011;1625;49.884;8.666;2023-03-05T15:16:26;3.80;;;3.23;;
3225;SDS011;1625;49.884;8.666;2023-03-05T15:18:51;4.30;;;3.70;;
3225;SDS011;1625;49.884;8.666;2023-03-05T15:21:23;4.13;;;3.67;;
3225;SDS011;1625;49.884;8.666;2023-03-05T15:23:53;5.77;;;3.30;;
3225;SDS011;1625;49.884;8.666;2023-03-05T15:26:18;4.27;;;3.60;;
3225;SDS011;1625;49.884;8.666;2023-03-05T15:28:45;5.03;;;3.10;;
3225;SDS011;1625;49.884;8.666;2023-03-05T15:31:11;3.50;;;2.90;;
3225;SDS011;1625;49.884;8.666;2023-03-05T15:33:39;5.40;;;3.47;;
3225;SDS011;1625;49.884;8.666;2023-03-05T15:36:05;4.60;;;3.63;;
3225;SDS011;1625;49.884;8.666;2023-03-05T15:38:32;4.17;;;3.40;;
3225;SDS011;1625;49.884;8.666;2023-03-05T16:05:03;4.90;;;3.80;;
3225;SDS011;1625;49.884;8.666;2023-03-05T16:07:30;9.40;;;5.47;;
3225;SDS011;1625;49.884;8.666;2023-03-05T16:09:58;5.30;;;4.17;;
3225;SDS011;1625;49.884;8.666;2023-03-05T16:12:24;6.17;;;4.50;;
3225;SDS011;1625;49.884;8.666;2023-03-05T16:14:53;7.20;;;4.27;;
3225;SDS011;1625;49.884;8.666;2023-03-05T16:50:58;7.80;;;5.50;;
3225;SDS011;1625;49.884;8.666;2023-03-05T16:57:17;7.60;;;4.80;;
3225;SDS011;1625;49.884;8.666;2023-03-05T17:42:12;7.20;;;4.33;;
3225;SDS011;1625;49.884;8.666;2023-03-05T17:45:17;6.97;;;5.67;;
3225;SDS011;1625;49.884;8.666;2023-03-05T17:47:48;5.67;;;4.80;;
3225;SDS011;1625;49.884;8.666;2023-03-05T17:54:27;6.60;;;5.30;;
3225;SDS011;1625;49.884;8.666;2023-03-05T17:57:08;6.10;;;4.90;;
3225;SDS011;1625;49.884;8.666;2023-03-05T18:03:24;7.90;;;5.10;;
3225;SDS011;1625;49.884;8.666;2023-03-05T18:05:55;7.13;;;5.70;;
3225;SDS011;1625;49.884;8.666;2023-03-05T18:08:22;9.40;;;6.30;;
3225;SDS011;1625;49.884;8.666;2023-03-05T18:10:48;8.90;;;6.20;;
3225;SDS011;1625;49.884;8.666;2023-03-05T18:13:13;8.47;;;6.50;;
3225;SDS011;1625;49.884;8.666;2023-03-05T18:15:39;7.30;;;5.93;;
3225;SDS011;1625;49.884;8.666;2023-03-05T23:01:14;7.17;;;6.07;;
3225;SDS011;1625;49.884;8.666;2023-03-05T23:18:15;8.67;;;6.93;;
